sensor_id;sensor_type;location;lat;lon;timestamp;temperature;humidity
58469;DHT22;44257;44.804;10.220;2022-08-21T00:01:30;21.30;99.90
58469;DHT22;44257;44.804;10.220;2022-08-21T00:03:57;21.20;99.90
58469;DHT22;44257;44.804;10.220;2022-08-21T00:06:24;21.20;99.90
58469;DHT22;44257;44.804;10.220;2022-08-21T00:08:52;21.10;99.90
58469;DHT22;44257;44.804;10.220;2022-08-21T00:11:22;21.00;99.90
58469;DHT22;44257;44.804;10.220;2022-08-21T00:13:50;21.00;99.90
58469;DHT22;44257;44.804;10.220;2022-08-21T00:16:16;20.90;99.90
58469;DHT22;44257;44.804;10.220;2022-08-21T00:18:42;20.80;99.90
58469;DHT22;44257;44.804;10.220;2022-08-21T00:21:08;20.70;99.90
58469;DHT22;44257;44.804;10.220;2022-08-21T00:23:34;20.70;99.90
58469;DHT22;44257;44.804;10.220;2022-08-21T00:26:01;20.60;99.90
58469;DHT22;44257;44.804;10.220;2022-08-21T00:28:27;20.50;99.90
58469;DHT22;44257;44.804;10.220;2022-08-21T00:30:52;20.50;99.90
58469;DHT22;44257;44.804;10.220;2022-08-21T00:33:19;20.40;99.90
58469;DHT22;44257;44.804;10.220;2022-08-21T00:35:46;20.40;99.90
58469;DHT22;44257;44.804;10.220;2022-08-21T00:38:12;20.30;99.90
58469;DHT22;44257;44.804;10.220;2022-08-21T00:40:49;20.30;99.90
58469;DHT22;44257;44.804;10.220;2022-08-21T00:43:18;20.30;99.90
58469;DHT22;44257;44.804;10.220;2022-08-21T00:45:44;20.20;99.90
58469;DHT22;44257;44.804;10.220;2022-08-21T00:48:10;20.20;99.90
58469;DHT22;44257;44.804;10.220;2022-08-21T00:50:46;20.20;99.90
58469;DHT22;44257;44.804;10.220;2022-08-21T00:53:14;20.20;99.90
58469;DHT22;44257;44.804;10.220;2022-08-21T00:55:41;20.20;99.90
58469;DHT22;44257;44.804;10.220;2022-08-21T00:58:10;20.20;99.90
58469;DHT22;44257;44.804;10.220;2022-08-21T01:00:40;20.20;99.90
58469;DHT22;44257;44.804;10.220;2022-08-21T01:03:10;20.20;99.90
58469;DHT22;44257;44.804;10.220;2022-08-21T01:05:37;20.20;99.90
58469;DHT22;44257;44.804;10.220;2022-08-21T01:08:04;20.20;99.90
58469;DHT22;44257;44.804;10.220;2022-08-21T01:10:32;20.20;99.90
58469;DHT22;44257;44.804;10.220;2022-08-21T01:12:58;20.20;99.90
58469;DHT22;44257;44.804;10.220;2022-08-21T01:15:30;20.20;99.90
58469;DHT22;44257;44.804;10.220;2022-08-21T01:17:57;20.20;99.90
58469;DHT22;44257;44.804;10.220;2022-08-21T01:20:23;20.20;99.90
58469;DHT22;44257;44.804;10.220;2022-08-21T01:22:50;20.30;99.90
58469;DHT22;44257;44.804;10.220;2022-08-21T01:25:18;20.30;99.90
58469;DHT22;44257;44.804;10.220;2022-08-21T01:27:46;20.30;99.90
58469;DHT22;44257;44.804;10.220;2022-08-21T01:30:25;20.30;99.90
58469;DHT22;44257;44.804;10.220;2022-08-21T01:32:53;20.30;99.90
58469;DHT22;44257;44.804;10.220;2022-08-21T01:35:20;20.30;99.90
58469;DHT22;44257;44.804;10.220;2022-08-21T01:37:47;20.30;99.90
58469;DHT22;44257;44.804;10.220;2022-08-21T01:40:14;20.20;99.90
58469;DHT22;44257;44.804;10.220;2022-08-21T01:42:42;20.10;99.90
58469;DHT22;44257;44.804;10.220;2022-08-21T01:45:09;20.10;99.90
58469;DHT22;44257;44.804;10.220;2022-08-21T01:47:35;20.10;99.90
58469;DHT22;44257;44.804;10.220;2022-08-21T01:50:03;20.10;99.90
58469;DHT22;44257;44.804;10.220;2022-08-21T01:52:29;20.10;99.90
58469;DHT22;44257;44.804;10.220;2022-08-21T01:54:55;20.10;99.90
58469;DHT22;44257;44.804;10.220;2022-08-21T01:57:21;20.00;99.90
58469;DHT22;44257;44.804;10.220;2022-08-21T01:59:47;20.00;99.90
58469;DHT22;44257;44.804;10.220;2022-08-21T02:02:13;19.90;99.90
58469;DHT22;44257;44.804;10.220;2022-08-21T02:04:39;19.90;99.90
58469;DHT22;44257;44.804;10.220;2022-08-21T02:07:05;19.90;99.90
58469;DHT22;44257;44.804;10.220;2022-08-21T02:09:31;19.80;99.90
58469;DHT22;44257;44.804;10.220;2022-08-21T02:11:57;19.80;99.90
58469;DHT22;44257;44.804;10.220;2022-08-21T02:14:23;19.80;99.90
58469;DHT22;44257;44.804;10.220;2022-08-21T02:16:50;19.80;99.90
58469;DHT22;44257;44.804;10.220;2022-08-21T02:19:16;19.80;99.90
58469;DHT22;44257;44.804;10.220;2022-08-21T02:21:43;19.80;99.90
58469;DHT22;44257;44.804;10.220;2022-08-21T02:24:09;19.80;99.90
58469;DHT22;44257;44.804;10.220;2022-08-21T02:26:35;19.90;99.90
58469;DHT22;44257;44.804;10.220;2022-08-21T02:29:03;19.90;99.90
58469;DHT22;44257;44.804;10.220;2022-08-21T02:31:29;19.80;99.90
58469;DHT22;44257;44.804;10.220;2022-08-21T02:33:55;19.80;99.90
58469;DHT22;44257;44.804;10.220;2022-08-21T02:36:20;19.90;99.90
58469;DHT22;44257;44.804;10.220;2022-08-21T02:38:46;19.80;99.90
58469;DHT22;44257;44.804;10.220;2022-08-21T02:41:17;19.90;99.90
58469;DHT22;44257;44.804;10.220;2022-08-21T02:43:44;19.90;99.90
58469;DHT22;44257;44.804;10.220;2022-08-21T02:46:12;19.90;99.90
58469;DHT22;44257;44.804;10.220;2022-08-21T02:48:39;19.90;99.90
58469;DHT22;44257;44.804;10.220;2022-08-21T02:51:11;19.80;99.90
58469;DHT22;44257;44.804;10.220;2022-08-21T02:53:40;19.80;99.90
58469;DHT22;44257;44.804;10.220;2022-08-21T02:56:13;19.80;99.90
58469;DHT22;44257;44.804;10.220;2022-08-21T02:58:44;19.80;99.90
58469;DHT22;44257;44.804;10.220;2022-08-21T03:01:11;19.80;99.90
58469;DHT22;44257;44.804;10.220;2022-08-21T03:03:39;19.70;99.90
58469;DHT22;44257;44.804;10.220;2022-08-21T03:06:07;19.70;99.90
58469;DHT22;44257;44.804;10.220;2022-08-21T03:08:35;19.70;99.90
58469;DHT22;44257;44.804;10.220;2022-08-21T03:11:02;19.70;99.90
58469;DHT22;44257;44.804;10.220;2022-08-21T03:13:28;19.60;99.90
58469;DHT22;44257;44.804;10.220;2022-08-21T03:15:55;19.60;99.90
58469;DHT22;44257;44.804;10.220;2022-08-21T03:18:21;19.50;99.90
58469;DHT22;44257;44.804;10.220;2022-08-21T03:20:47;19.50;99.90
58469;DHT22;44257;44.804;10.220;2022-08-21T03:23:16;19.60;99.90
58469;DHT22;44257;44.804;10.220;2022-08-21T03:25:44;19.50;99.90
58469;DHT22;44257;44.804;10.220;2022-08-21T03:28:13;19.50;99.90
58469;DHT22;44257;44.804;10.220;2022-08-21T03:30:46;19.50;99.90
58469;DHT22;44257;44.804;10.220;2022-08-21T03:33:12;19.50;99.90
58469;DHT22;44257;44.804;10.220;2022-08-21T03:35:38;19.40;99.90
58469;DHT22;44257;44.804;10.220;2022-08-21T03:38:04;19.40;99.90
58469;DHT22;44257;44.804;10.220;2022-08-21T03:40:30;19.40;99.90
58469;DHT22;44257;44.804;10.220;2022-08-21T03:42:56;19.30;99.90
58469;DHT22;44257;44.804;10.220;2022-08-21T03:45:22;19.40;99.90
58469;DHT22;44257;44.804;10.220;2022-08-21T03:48:00;19.40;99.90
58469;DHT22;44257;44.804;10.220;2022-08-21T03:50:30;19.40;99.90
58469;DHT22;44257;44.804;10.220;2022-08-21T03:52:56;19.30;99.90
58469;DHT22;44257;44.804;10.220;2022-08-21T03:55:23;19.30;99.90
58469;DHT22;44257;44.804;10.220;2022-08-21T03:57:49;19.30;99.90
58469;DHT22;44257;44.804;10.220;2022-08-21T04:00:16;19.20;99.90
58469;DHT22;44257;44.804;10.220;2022-08-21T04:02:43;19.20;99.90
58469;DHT22;44257;44.804;10.220;2022-08-21T04:05:10;19.10;99.90
58469;DHT22;44257;44.804;10.220;2022-08-21T04:07:37;19.10;99.90
58469;DHT22;44257;44.804;10.220;2022-08-21T04:10:04;19.20;99.90
58469;DHT22;44257;44.804;10.220;2022-08-21T04:12:31;19.10;99.90
58469;DHT22;44257;44.804;10.220;2022-08-21T04:14:58;19.10;99.90
58469;DHT22;44257;44.804;10.220;2022-08-21T04:17:24;19.10;99.90
58469;DHT22;44257;44.804;10.220;2022-08-21T04:19:50;19.00;99.90
58469;DHT22;44257;44.804;10.220;2022-08-21T04:22:16;19.00;99.90
58469;DHT22;44257;44.804;10.220;2022-08-21T04:24:42;19.00;99.90
58469;DHT22;44257;44.804;10.220;2022-08-21T04:27:09;18.90;99.90
58469;DHT22;44257;44.804;10.220;2022-08-21T04:29:34;18.90;99.90
58469;DHT22;44257;44.804;10.220;2022-08-21T04:32:01;18.90;99.90
58469;DHT22;44257;44.804;10.220;2022-08-21T04:34:27;18.90;99.90
58469;DHT22;44257;44.804;10.220;2022-08-21T04:36:53;18.90;99.90
58469;DHT22;44257;44.804;10.220;2022-08-21T04:39:18;18.90;99.90
58469;DHT22;44257;44.804;10.220;2022-08-21T04:41:44;18.90;99.90
58469;DHT22;44257;44.804;10.220;2022-08-21T04:44:12;18.90;99.90
58469;DHT22;44257;44.804;10.220;2022-08-21T04:46:38;19.00;99.90
58469;DHT22;44257;44.804;10.220;2022-08-21T04:49:04;19.00;99.90
58469;DHT22;44257;44.804;10.220;2022-08-21T04:51:34;19.00;99.90
58469;DHT22;44257;44.804;10.220;2022-08-21T04:54:12;19.10;99.90
58469;DHT22;44257;44.804;10.220;2022-08-21T04:56:53;19.10;99.90
58469;DHT22;44257;44.804;10.220;2022-08-21T04:59:27;19.10;99.90
58469;DHT22;44257;44.804;10.220;2022-08-21T05:01:53;19.20;99.90
58469;DHT22;44257;44.804;10.220;2022-08-21T05:04:25;19.20;99.90
58469;DHT22;44257;44.804;10.220;2022-08-21T05:06:54;19.20;99.90
58469;DHT22;44257;44.804;10.220;2022-08-21T05:09:23;19.20;99.90
58469;DHT22;44257;44.804;10.220;2022-08-21T05:11:50;19.20;99.90
58469;DHT22;44257;44.804;10.220;2022-08-21T05:14:17;19.30;99.90
58469;DHT22;44257;44.804;10.220;2022-08-21T05:16:43;19.40;99.90
58469;DHT22;44257;44.804;10.220;2022-08-21T05:19:10;19.40;99.90
58469;DHT22;44257;44.804;10.220;2022-08-21T05:21:38;19.50;99.90
58469;DHT22;44257;44.804;10.220;2022-08-21T05:24:07;19.50;99.90
58469;DHT22;44257;44.804;10.220;2022-08-21T05:26:34;19.70;99.90
58469;DHT22;44257;44.804;10.220;2022-08-21T05:29:01;19.70;99.90
58469;DHT22;44257;44.804;10.220;2022-08-21T05:31:27;19.90;99.90
58469;DHT22;44257;44.804;10.220;2022-08-21T05:33:54;20.20;99.90
58469;DHT22;44257;44.804;10.220;2022-08-21T05:36:19;20.60;99.90
58469;DHT22;44257;44.804;10.220;2022-08-21T05:38:46;20.90;99.90
58469;DHT22;44257;44.804;10.220;2022-08-21T05:41:13;21.20;99.90
58469;DHT22;44257;44.804;10.220;2022-08-21T05:43:39;21.60;99.90
58469;DHT22;44257;44.804;10.220;2022-08-21T05:46:06;22.10;99.90
58469;DHT22;44257;44.804;10.220;2022-08-21T05:48:33;22.70;99.90
58469;DHT22;44257;44.804;10.220;2022-08-21T05:51:08;23.20;99.90
58469;DHT22;44257;44.804;10.220;2022-08-21T05:53:35;23.80;99.90
58469;DHT22;44257;44.804;10.220;2022-08-21T05:56:01;24.30;99.90
58469;DHT22;44257;44.804;10.220;2022-08-21T05:58:31;24.70;99.90
58469;DHT22;44257;44.804;10.220;2022-08-21T06:00:58;25.10;99.90
58469;DHT22;44257;44.804;10.220;2022-08-21T06:03:28;25.40;99.90
58469;DHT22;44257;44.804;10.220;2022-08-21T06:05:55;25.80;99.90
58469;DHT22;44257;44.804;10.220;2022-08-21T06:08:22;26.00;99.90
58469;DHT22;44257;44.804;10.220;2022-08-21T06:10:50;26.30;99.90
58469;DHT22;44257;44.804;10.220;2022-08-21T06:13:18;26.40;99.90
58469;DHT22;44257;44.804;10.220;2022-08-21T06:15:44;26.50;99.90
58469;DHT22;44257;44.804;10.220;2022-08-21T06:18:11;26.70;99.90
58469;DHT22;44257;44.804;10.220;2022-08-21T06:20:37;27.00;99.90
58469;DHT22;44257;44.804;10.220;2022-08-21T06:23:04;27.20;99.90
58469;DHT22;44257;44.804;10.220;2022-08-21T06:25:30;27.40;99.90
58469;DHT22;44257;44.804;10.220;2022-08-21T06:28:04;27.50;99.90
58469;DHT22;44257;44.804;10.220;2022-08-21T06:30:31;27.50;99.80
58469;DHT22;44257;44.804;10.220;2022-08-21T06:32:57;27.50;98.30
58469;DHT22;44257;44.804;10.220;2022-08-21T06:35:23;27.30;99.00
58469;DHT22;44257;44.804;10.220;2022-08-21T06:37:50;27.10;99.00
58469;DHT22;44257;44.804;10.220;2022-08-21T06:40:16;26.80;99.10
58469;DHT22;44257;44.804;10.220;2022-08-21T06:42:43;26.50;99.60
58469;DHT22;44257;44.804;10.220;2022-08-21T06:45:10;26.30;99.90
58469;DHT22;44257;44.804;10.220;2022-08-21T06:47:36;26.20;99.90
58469;DHT22;44257;44.804;10.220;2022-08-21T06:50:02;26.10;99.90
58469;DHT22;44257;44.804;10.220;2022-08-21T06:52:29;26.00;99.90
58469;DHT22;44257;44.804;10.220;2022-08-21T06:54:57;26.00;99.90
58469;DHT22;44257;44.804;10.220;2022-08-21T06:57:22;26.00;99.90
58469;DHT22;44257;44.804;10.220;2022-08-21T06:59:48;26.00;99.90
58469;DHT22;44257;44.804;10.220;2022-08-21T07:02:14;26.00;99.90
58469;DHT22;44257;44.804;10.220;2022-08-21T07:04:41;26.00;99.90
58469;DHT22;44257;44.804;10.220;2022-08-21T07:07:06;26.20;99.90
58469;DHT22;44257;44.804;10.220;2022-08-21T07:09:32;26.20;99.90
58469;DHT22;44257;44.804;10.220;2022-08-21T07:11:58;26.00;99.90
58469;DHT22;44257;44.804;10.220;2022-08-21T07:14:24;26.00;99.90
58469;DHT22;44257;44.804;10.220;2022-08-21T07:16:50;25.90;99.90
58469;DHT22;44257;44.804;10.220;2022-08-21T07:19:17;25.90;99.90
58469;DHT22;44257;44.804;10.220;2022-08-21T07:21:43;25.80;99.90
58469;DHT22;44257;44.804;10.220;2022-08-21T07:24:09;25.70;99.90
58469;DHT22;44257;44.804;10.220;2022-08-21T07:26:35;25.80;99.90
58469;DHT22;44257;44.804;10.220;2022-08-21T07:29:03;25.80;99.90
58469;DHT22;44257;44.804;10.220;2022-08-21T07:31:29;25.80;99.90
58469;DHT22;44257;44.804;10.220;2022-08-21T07:33:55;25.80;99.90
58469;DHT22;44257;44.804;10.220;2022-08-21T07:36:21;25.80;99.90
58469;DHT22;44257;44.804;10.220;2022-08-21T07:38:47;26.00;99.90
58469;DHT22;44257;44.804;10.220;2022-08-21T07:41:19;26.00;99.90
58469;DHT22;44257;44.804;10.220;2022-08-21T07:43:47;26.00;99.90
58469;DHT22;44257;44.804;10.220;2022-08-21T07:46:13;26.00;99.90
58469;DHT22;44257;44.804;10.220;2022-08-21T07:48:39;26.00;99.90
58469;DHT22;44257;44.804;10.220;2022-08-21T07:51:08;26.20;99.90
58469;DHT22;44257;44.804;10.220;2022-08-21T07:53:37;26.30;99.90
58469;DHT22;44257;44.804;10.220;2022-08-21T07:56:04;26.50;99.90
58469;DHT22;44257;44.804;10.220;2022-08-21T07:58:32;26.60;99.90
58469;DHT22;44257;44.804;10.220;2022-08-21T08:00:58;26.70;99.90
58469;DHT22;44257;44.804;10.220;2022-08-21T08:03:24;26.80;99.90
58469;DHT22;44257;44.804;10.220;2022-08-21T08:05:50;26.80;99.90
58469;DHT22;44257;44.804;10.220;2022-08-21T08:08:16;26.80;99.90
58469;DHT22;44257;44.804;10.220;2022-08-21T08:10:43;26.80;99.90
58469;DHT22;44257;44.804;10.220;2022-08-21T08:13:09;26.70;99.90
58469;DHT22;44257;44.804;10.220;2022-08-21T08:15:36;26.80;99.90
58469;DHT22;44257;44.804;10.220;2022-08-21T08:18:02;26.70;99.90
58469;DHT22;44257;44.804;10.220;2022-08-21T08:20:28;26.80;99.90
58469;DHT22;44257;44.804;10.220;2022-08-21T08:22:55;26.80;99.90
58469;DHT22;44257;44.804;10.220;2022-08-21T08:25:22;27.00;99.90
58469;DHT22;44257;44.804;10.220;2022-08-21T08:27:49;27.10;99.90
58469;DHT22;44257;44.804;10.220;2022-08-21T08:30:18;27.20;99.90
58469;DHT22;44257;44.804;10.220;2022-08-21T08:32:44;27.40;99.90
58469;DHT22;44257;44.804;10.220;2022-08-21T08:35:10;27.50;99.90
58469;DHT22;44257;44.804;10.220;2022-08-21T08:37:38;27.60;99.90
58469;DHT22;44257;44.804;10.220;2022-08-21T08:40:11;27.70;99.90
58469;DHT22;44257;44.804;10.220;2022-08-21T08:42:39;27.70;99.90
58469;DHT22;44257;44.804;10.220;2022-08-21T08:45:18;27.80;99.90
58469;DHT22;44257;44.804;10.220;2022-08-21T08:47:49;27.90;99.90
58469;DHT22;44257;44.804;10.220;2022-08-21T08:50:21;28.00;99.60
58469;DHT22;44257;44.804;10.220;2022-08-21T08:53:03;28.10;99.30
58469;DHT22;44257;44.804;10.220;2022-08-21T08:55:39;28.10;99.60
58469;DHT22;44257;44.804;10.220;2022-08-21T08:58:06;27.90;99.20
58469;DHT22;44257;44.804;10.220;2022-08-21T09:00:34;28.00;99.90
58469;DHT22;44257;44.804;10.220;2022-08-21T09:03:02;28.10;99.10
58469;DHT22;44257;44.804;10.220;2022-08-21T09:06:06;28.20;99.80
58469;DHT22;44257;44.804;10.220;2022-08-21T09:08:54;28.40;98.70
58469;DHT22;44257;44.804;10.220;2022-08-21T09:11:52;28.40;99.30
58469;DHT22;44257;44.804;10.220;2022-08-21T09:17:56;28.70;98.80
58469;DHT22;44257;44.804;10.220;2022-08-21T09:26:00;29.10;98.20
58469;DHT22;44257;44.804;10.220;2022-08-21T09:28:31;29.20;95.90
58469;DHT22;44257;44.804;10.220;2022-08-21T09:31:00;29.20;95.90
58469;DHT22;44257;44.804;10.220;2022-08-21T09:33:28;29.30;96.50
58469;DHT22;44257;44.804;10.220;2022-08-21T09:35:55;29.50;95.90
58469;DHT22;44257;44.804;10.220;2022-08-21T09:38:31;29.70;95.30
58469;DHT22;44257;44.804;10.220;2022-08-21T09:41:02;29.80;94.90
58469;DHT22;44257;44.804;10.220;2022-08-21T09:43:30;29.90;95.20
58469;DHT22;44257;44.804;10.220;2022-08-21T09:46:21;30.00;94.50
58469;DHT22;44257;44.804;10.220;2022-08-21T09:48:55;30.20;94.20
58469;DHT22;44257;44.804;10.220;2022-08-21T09:51:33;30.30;93.80
58469;DHT22;44257;44.804;10.220;2022-08-21T09:56:32;30.40;93.40
58469;DHT22;44257;44.804;10.220;2022-08-21T09:59:34;30.50;93.90
58469;DHT22;44257;44.804;10.220;2022-08-21T10:02:02;30.70;92.90
58469;DHT22;44257;44.804;10.220;2022-08-21T10:04:34;30.80;92.00
58469;DHT22;44257;44.804;10.220;2022-08-21T10:07:08;30.90;92.90
58469;DHT22;44257;44.804;10.220;2022-08-21T10:09:34;31.10;92.70
58469;DHT22;44257;44.804;10.220;2022-08-21T10:12:24;31.20;91.90
58469;DHT22;44257;44.804;10.220;2022-08-21T10:14:58;31.30;91.70
58469;DHT22;44257;44.804;10.220;2022-08-21T10:17:58;31.30;91.00
58469;DHT22;44257;44.804;10.220;2022-08-21T10:25:58;31.50;90.90
58469;DHT22;44257;44.804;10.220;2022-08-21T10:31:27;31.70;91.00
58469;DHT22;44257;44.804;10.220;2022-08-21T10:39:55;31.70;90.20
58469;DHT22;44257;44.804;10.220;2022-08-21T10:45:00;31.80;87.70
58469;DHT22;44257;44.804;10.220;2022-08-21T10:47:35;31.80;86.00
58469;DHT22;44257;44.804;10.220;2022-08-21T10:55:18;31.60;84.80
58469;DHT22;44257;44.804;10.220;2022-08-21T11:00:20;31.50;85.60
58469;DHT22;44257;44.804;10.220;2022-08-21T11:02:59;31.60;87.80
58469;DHT22;44257;44.804;10.220;2022-08-21T11:05:31;31.80;87.60
58469;DHT22;44257;44.804;10.220;2022-08-21T11:08:14;31.90;85.00
58469;DHT22;44257;44.804;10.220;2022-08-21T11:10:48;31.80;85.20
58469;DHT22;44257;44.804;10.220;2022-08-21T11:16:19;31.90;84.80
58469;DHT22;44257;44.804;10.220;2022-08-21T11:18:55;32.00;88.00
58469;DHT22;44257;44.804;10.220;2022-08-21T11:29:58;32.50;86.00
58469;DHT22;44257;44.804;10.220;2022-08-21T11:32:36;32.50;84.30
58469;DHT22;44257;44.804;10.220;2022-08-21T11:35:26;32.70;87.80
58469;DHT22;44257;44.804;10.220;2022-08-21T11:38:04;32.80;88.60
58469;DHT22;44257;44.804;10.220;2022-08-21T11:41:02;32.90;81.00
58469;DHT22;44257;44.804;10.220;2022-08-21T11:43:39;32.70;81.10
58469;DHT22;44257;44.804;10.220;2022-08-21T11:46:20;32.50;82.70
58469;DHT22;44257;44.804;10.220;2022-08-21T11:49:14;32.50;83.80
58469;DHT22;44257;44.804;10.220;2022-08-21T11:54:31;32.70;81.20
58469;DHT22;44257;44.804;10.220;2022-08-21T11:57:08;32.60;80.60
58469;DHT22;44257;44.804;10.220;2022-08-21T11:59:48;32.50;80.30
58469;DHT22;44257;44.804;10.220;2022-08-21T12:02:24;32.50;81.90
58469;DHT22;44257;44.804;10.220;2022-08-21T12:05:00;32.50;81.70
58469;DHT22;44257;44.804;10.220;2022-08-21T12:07:37;32.60;81.80
58469;DHT22;44257;44.804;10.220;2022-08-21T12:10:09;32.70;80.10
58469;DHT22;44257;44.804;10.220;2022-08-21T12:12:40;32.80;80.10
58469;DHT22;44257;44.804;10.220;2022-08-21T12:21:26;32.90;83.40
58469;DHT22;44257;44.804;10.220;2022-08-21T12:27:12;33.40;76.20
58469;DHT22;44257;44.804;10.220;2022-08-21T12:29:48;33.40;77.10
58469;DHT22;44257;44.804;10.220;2022-08-21T12:35:06;33.50;79.70
58469;DHT22;44257;44.804;10.220;2022-08-21T12:43:46;33.40;76.40
58469;DHT22;44257;44.804;10.220;2022-08-21T12:46:17;33.40;74.40
58469;DHT22;44257;44.804;10.220;2022-08-21T12:48:48;33.60;76.40
58469;DHT22;44257;44.804;10.220;2022-08-21T12:51:18;33.70;77.40
58469;DHT22;44257;44.804;10.220;2022-08-21T12:53:53;33.80;76.80
58469;DHT22;44257;44.804;10.220;2022-08-21T12:56:29;33.90;73.30
58469;DHT22;44257;44.804;10.220;2022-08-21T12:59:06;33.70;70.50
58469;DHT22;44257;44.804;10.220;2022-08-21T13:01:36;33.50;69.30
58469;DHT22;44257;44.804;10.220;2022-08-21T13:04:13;33.30;70.20
58469;DHT22;44257;44.804;10.220;2022-08-21T13:06:47;33.30;69.90
58469;DHT22;44257;44.804;10.220;2022-08-21T13:09:19;33.30;68.70
58469;DHT22;44257;44.804;10.220;2022-08-21T13:11:47;33.30;70.70
58469;DHT22;44257;44.804;10.220;2022-08-21T13:14:25;33.50;71.20
58469;DHT22;44257;44.804;10.220;2022-08-21T13:16:55;33.70;71.10
58469;DHT22;44257;44.804;10.220;2022-08-21T13:19:21;33.90;70.20
58469;DHT22;44257;44.804;10.220;2022-08-21T13:21:47;33.90;68.70
58469;DHT22;44257;44.804;10.220;2022-08-21T13:24:16;33.80;69.40
58469;DHT22;44257;44.804;10.220;2022-08-21T13:26:44;33.80;69.30
58469;DHT22;44257;44.804;10.220;2022-08-21T13:29:12;33.90;68.80
58469;DHT22;44257;44.804;10.220;2022-08-21T13:31:53;34.00;70.00
58469;DHT22;44257;44.804;10.220;2022-08-21T13:34:25;34.10;72.20
58469;DHT22;44257;44.804;10.220;2022-08-21T13:36:57;34.10;69.70
58469;DHT22;44257;44.804;10.220;2022-08-21T13:39:24;34.10;67.20
58469;DHT22;44257;44.804;10.220;2022-08-21T13:41:55;34.20;67.70
58469;DHT22;44257;44.804;10.220;2022-08-21T13:46:59;34.20;68.30
58469;DHT22;44257;44.804;10.220;2022-08-21T13:49:43;34.30;65.30
58469;DHT22;44257;44.804;10.220;2022-08-21T13:52:22;34.30;67.30
58469;DHT22;44257;44.804;10.220;2022-08-21T13:55:06;34.40;64.30
58469;DHT22;44257;44.804;10.220;2022-08-21T13:57:34;34.40;67.90
58469;DHT22;44257;44.804;10.220;2022-08-21T14:00:16;34.50;65.90
58469;DHT22;44257;44.804;10.220;2022-08-21T14:02:46;34.50;64.50
58469;DHT22;44257;44.804;10.220;2022-08-21T14:05:24;34.40;67.20
58469;DHT22;44257;44.804;10.220;2022-08-21T14:08:14;34.30;64.30
58469;DHT22;44257;44.804;10.220;2022-08-21T14:10:48;34.30;63.10
58469;DHT22;44257;44.804;10.220;2022-08-21T14:16:40;34.10;63.20
58469;DHT22;44257;44.804;10.220;2022-08-21T14:19:34;34.00;63.70
58469;DHT22;44257;44.804;10.220;2022-08-21T14:22:01;34.10;66.20
58469;DHT22;44257;44.804;10.220;2022-08-21T14:24:29;34.30;64.40
58469;DHT22;44257;44.804;10.220;2022-08-21T14:29:26;34.50;64.80
58469;DHT22;44257;44.804;10.220;2022-08-21T14:31:58;34.60;64.10
58469;DHT22;44257;44.804;10.220;2022-08-21T14:34:26;34.60;64.80
58469;DHT22;44257;44.804;10.220;2022-08-21T14:36:52;34.80;64.30
58469;DHT22;44257;44.804;10.220;2022-08-21T14:39:19;35.00;62.40
58469;DHT22;44257;44.804;10.220;2022-08-21T14:41:46;35.00;61.50
58469;DHT22;44257;44.804;10.220;2022-08-21T14:44:16;34.90;59.60
58469;DHT22;44257;44.804;10.220;2022-08-21T14:46:42;34.50;60.60
58469;DHT22;44257;44.804;10.220;2022-08-21T14:49:08;34.30;62.00
58469;DHT22;44257;44.804;10.220;2022-08-21T14:51:35;34.30;63.10
58469;DHT22;44257;44.804;10.220;2022-08-21T14:54:01;34.30;64.40
58469;DHT22;44257;44.804;10.220;2022-08-21T14:56:27;34.60;62.00
58469;DHT22;44257;44.804;10.220;2022-08-21T14:58:53;34.70;56.40
58469;DHT22;44257;44.804;10.220;2022-08-21T15:01:22;34.70;58.00
58469;DHT22;44257;44.804;10.220;2022-08-21T15:03:48;34.70;56.20
58469;DHT22;44257;44.804;10.220;2022-08-21T15:06:15;34.60;56.80
58469;DHT22;44257;44.804;10.220;2022-08-21T15:08:43;34.60;56.90
58469;DHT22;44257;44.804;10.220;2022-08-21T15:11:12;34.60;56.00
58469;DHT22;44257;44.804;10.220;2022-08-21T15:13:39;34.60;55.50
58469;DHT22;44257;44.804;10.220;2022-08-21T15:16:06;34.40;56.60
58469;DHT22;44257;44.804;10.220;2022-08-21T15:18:33;34.40;56.30
58469;DHT22;44257;44.804;10.220;2022-08-21T15:21:00;34.40;58.00
58469;DHT22;44257;44.804;10.220;2022-08-21T15:23:26;34.30;58.60
58469;DHT22;44257;44.804;10.220;2022-08-21T15:25:54;34.30;57.80
58469;DHT22;44257;44.804;10.220;2022-08-21T15:28:24;34.20;57.60
58469;DHT22;44257;44.804;10.220;2022-08-21T15:30:51;34.10;58.40
58469;DHT22;44257;44.804;10.220;2022-08-21T15:33:17;34.00;56.70
58469;DHT22;44257;44.804;10.220;2022-08-21T15:35:44;33.70;57.20
58469;DHT22;44257;44.804;10.220;2022-08-21T15:38:12;33.60;57.60
58469;DHT22;44257;44.804;10.220;2022-08-21T15:40:39;33.50;57.90
58469;DHT22;44257;44.804;10.220;2022-08-21T15:43:06;33.40;57.90
58469;DHT22;44257;44.804;10.220;2022-08-21T15:45:35;33.40;56.70
58469;DHT22;44257;44.804;10.220;2022-08-21T15:48:01;33.30;57.40
58469;DHT22;44257;44.804;10.220;2022-08-21T15:50:28;33.20;57.20
58469;DHT22;44257;44.804;10.220;2022-08-21T15:52:54;33.30;57.70
58469;DHT22;44257;44.804;10.220;2022-08-21T15:55:20;33.20;57.40
58469;DHT22;44257;44.804;10.220;2022-08-21T15:57:51;33.20;58.90
58469;DHT22;44257;44.804;10.220;2022-08-21T16:00:23;33.10;57.20
58469;DHT22;44257;44.804;10.220;2022-08-21T16:02:54;33.00;57.70
58469;DHT22;44257;44.804;10.220;2022-08-21T16:05:24;33.00;58.70
58469;DHT22;44257;44.804;10.220;2022-08-21T16:07:51;32.80;58.70
58469;DHT22;44257;44.804;10.220;2022-08-21T16:10:20;32.70;59.00
58469;DHT22;44257;44.804;10.220;2022-08-21T16:12:54;32.70;59.70
58469;DHT22;44257;44.804;10.220;2022-08-21T16:15:21;32.80;59.00
58469;DHT22;44257;44.804;10.220;2022-08-21T16:17:49;32.80;59.10
58469;DHT22;44257;44.804;10.220;2022-08-21T16:20:22;32.70;58.50
58469;DHT22;44257;44.804;10.220;2022-08-21T16:22:51;32.60;58.70
58469;DHT22;44257;44.804;10.220;2022-08-21T16:25:18;32.60;60.50
58469;DHT22;44257;44.804;10.220;2022-08-21T16:27:47;32.50;63.30
58469;DHT22;44257;44.804;10.220;2022-08-21T16:30:18;32.40;62.20
58469;DHT22;44257;44.804;10.220;2022-08-21T16:32:51;32.30;63.20
58469;DHT22;44257;44.804;10.220;2022-08-21T16:35:18;32.20;62.10
58469;DHT22;44257;44.804;10.220;2022-08-21T16:37:46;32.20;61.60
58469;DHT22;44257;44.804;10.220;2022-08-21T16:40:13;32.00;60.60
58469;DHT22;44257;44.804;10.220;2022-08-21T16:42:41;31.90;63.20
58469;DHT22;44257;44.804;10.220;2022-08-21T16:45:13;31.90;65.00
58469;DHT22;44257;44.804;10.220;2022-08-21T16:47:39;31.80;61.80